Portada
METAR-TAF:

METAR-TAF

Aeroports :

Txengdu, Xina

latitud: 30-40N, longitud: 104-01E, altitud: 508 m

Observació

L'informe es va fer fa 31 minuts, a les 15:00 UTC
Vent 2 kt del Nord
Temperatura 8°C
Humitat 93%
Pressió 1023 hPa
Visibilitat: 4000 m
Núvols disperses a una alçada de 4000 ft
pluja, boirina

METAR: ZUUU 231500Z 36001MPS 4000 -RA BR SCT040 08/07 Q1023 NOSIG

Hora: 23:31 (15:31 UTC)

Pronòstic

L'informe es va fer fa 7 hores i 27 minuts, a les 08:04 UTC
Pronòstic vàlid del 23 a les 12 UTC al 24 a les 12 UTC
Vent 6 kt del Nord/Nord-Est
Visibilitat: 4000 m
Núvols disperses a una alçada de 4000 ft
boirina
Evolucionant progressivament
l' 23 a les 22 UTC al 23 a les 23 UTC
Visibilitat: 2700 m
Evolucionant progressivament
l' 24 a les 02 UTC al 24 a les 03 UTC
Visibilitat: 3500 m
Temporalment
l' 23 a les 18 UTC al 23 a les 24 UTC
pluja

TAF: ZUUU 230804Z 2312/2412 02003MPS 4000 BR SCT040 TX11/2407Z TN07/2323Z BECMG 2322/2323 2700 BECMG 2402/2403 3500 TEMPO 2318/2324 -RA

Observacions i pronòstics meteorològics de més de 4000 aeroports (METAR i TAF).

Les estacions disponibles són els punts grocs i vermells al mapa.

Posi el ratolí al punt desitjat per veure el nom de l'estació.

Feu clic per veure les observacions i els pronòstics meteorològics.

Per canviar el mapa: feu clic els botons verds amb una creu de color negre per apropar; al botó verd amb un guió per allunyar la imatge; o en les fletxes verdes per a mapes adjacents.


METAR-TAF: